Bk Champc? — DSPN5 — position and weather

sailwx.info

Track history (hours):
 
Tides and Currents Weather Stations Pressure Air Temp Water Temp Dewpoint Dewpoint Depression Visibility Wind Speed Wind Dir Waves Ship Positions

Bk Champc?

Last reported at 2015-Jun-28 07:32 UTC. Time now 2015-Jul-05 00:06 UTC.
Position N 32°05' E 119°55'.

Length 176 m.

Type: Ship. MMSI: 216797491.

Date/timePositionNaut miles runAvg speedWind from/ knotsBaromVisibWave heightAir tempDewpointWater temp
2015-Jun-28 07:32N 32°05' E 119°55'9 9.0
2015-Jun-28 06:30N 31°58' E 120°02'9 9.4
2015-Jun-28 05:33N 31°56' E 120°12'10 8.9
2015-Jun-28 04:26N 32°01' E 120°23'8 8.6
2015-Jun-28 03:28N 32°04' E 120°31'8 8.9
2015-Jun-28 02:33N 32°00' E 120°40'8 8.4
2015-Jun-28 01:33N 31°60' E 120°50'10 9.5
2015-Jun-28 00:33N 31°51' E 120°54'20 9.1
2015-Jun-27 22:24N 31°40' E 121°13'3 0.7
2015-Jun-27 17:29N 31°38' E 121°16'3 0.6
2015-Jun-27 13:21N 31°36' E 121°18'8 9.6
2015-Jun-27 12:33N 31°30' E 121°25'1010.1
2015-Jun-27 11:33N 31°24' E 121°34'9 9.2
2015-Jun-27 10:33N 31°19' E 121°43'1212.0
2015-Jun-27 09:31N 31°10' E 121°52'42 2.4
2015-Jun-26 16:11N 31°03' E 122°40'0 0.0
2015-Jun-26 15:32N 31°03' E 122°40'2 0.1
2015-Jun-25 10:32N 31°03' E 122°43'  
2015-Jun-22 14:31N 22°33' E 120°20'4 4.4
2015-Jun-22 13:33N 22°32' E 120°15'2 1.6
2015-Jun-22 12:30N 22°32' E 120°14'6 6.7
2015-Jun-22 11:33N 22°26' E 120°14'  
Track history (hours):
 
Tides and Currents Weather Stations Pressure Air Temp Water Temp Dewpoint Dewpoint Depression Visibility Wind Speed Wind Dir Waves Ship Positions

Bk Champc?

Last reported at 2015-Jun-28 07:32 UTC. Time now 2015-Jul-05 00:06 UTC.
Position N 32°05' E 119°55'.

Length 176 m.

Type: Ship. MMSI: 216797491.

Date/timePositionNaut miles runAvg speedWind from/ knotsBaromVisibWave heightAir tempDewpointWater temp
2015-Jun-28 07:32N 32°05' E 119°55'9 9.0
2015-Jun-28 06:30N 31°58' E 120°02'9 9.4
2015-Jun-28 05:33N 31°56' E 120°12'10 8.9
2015-Jun-28 04:26N 32°01' E 120°23'8 8.6
2015-Jun-28 03:28N 32°04' E 120°31'8 8.9
2015-Jun-28 02:33N 32°00' E 120°40'8 8.4
2015-Jun-28 01:33N 31°60' E 120°50'10 9.5
2015-Jun-28 00:33N 31°51' E 120°54'20 9.1
2015-Jun-27 22:24N 31°40' E 121°13'3 0.7
2015-Jun-27 17:29N 31°38' E 121°16'3 0.6
2015-Jun-27 13:21N 31°36' E 121°18'8 9.6
2015-Jun-27 12:33N 31°30' E 121°25'1010.1
2015-Jun-27 11:33N 31°24' E 121°34'9 9.2
2015-Jun-27 10:33N 31°19' E 121°43'1212.0
2015-Jun-27 09:31N 31°10' E 121°52'42 2.4
2015-Jun-26 16:11N 31°03' E 122°40'0 0.0
2015-Jun-26 15:32N 31°03' E 122°40'2 0.1
2015-Jun-25 10:32N 31°03' E 122°43'  
2015-Jun-22 14:31N 22°33' E 120°20'4 4.4
2015-Jun-22 13:33N 22°32' E 120°15'2 1.6
2015-Jun-22 12:30N 22°32' E 120°14'6 6.7
2015-Jun-22 11:33N 22°26' E 120°14'  

Dump ship's entire track history